createdAt,value
2023-04-02T00:01:19.812Z,74.14
2023-04-02T00:03:53.372Z,74.03
2023-04-02T00:06:32.420Z,74.19
2023-04-02T00:09:17.622Z,74.18
2023-04-02T00:11:49.228Z,74.22
2023-04-02T00:14:35.668Z,74.16
2023-04-02T00:17:06.517Z,74.21
2023-04-02T00:19:37.771Z,74.12
2023-04-02T00:22:14.436Z,74.09
2023-04-02T00:24:44.087Z,74.06
2023-04-02T00:27:19.439Z,74.16
2023-04-02T00:29:55.821Z,74.00
2023-04-02T00:32:31.425Z,73.90
2023-04-02T00:35:00.946Z,73.89
2023-04-02T00:37:38.462Z,73.98
2023-04-02T00:40:16.736Z,74.07
2023-04-02T00:42:46.238Z,73.93
2023-04-02T00:45:28.925Z,73.92
2023-04-02T00:48:01.512Z,73.96
2023-04-02T00:50:41.612Z,73.84
2023-04-02T00:53:16.423Z,73.76
2023-04-02T00:55:50.217Z,73.88
2023-04-02T00:58:39.868Z,73.92
2023-04-02T01:01:22.561Z,73.86
2023-04-02T01:03:57.979Z,73.83
2023-04-02T01:06:34.013Z,73.95
2023-04-02T01:09:41.374Z,73.95
2023-04-02T01:12:43.394Z,73.96
2023-04-02T01:15:18.974Z,74.02
2023-04-02T01:18:26.254Z,73.71
2023-04-02T01:21:17.643Z,73.80
2023-04-02T01:24:08.870Z,73.94
2023-04-02T01:26:39.126Z,73.92
2023-04-02T01:29:12.702Z,73.69
2023-04-02T01:31:42.611Z,73.72
2023-04-02T01:34:15.080Z,73.82
2023-04-02T01:37:04.573Z,73.91
2023-04-02T01:39:51.742Z,73.89
2023-04-02T01:42:53.978Z,73.85
2023-04-02T01:45:25.431Z,73.83
2023-04-02T01:47:57.105Z,73.74
2023-04-02T01:50:32.116Z,73.62
2023-04-02T01:53:14.941Z,73.57
2023-04-02T01:55:53.170Z,73.58
2023-04-02T01:58:29.686Z,73.58
2023-04-02T02:01:08.049Z,73.54
2023-04-02T02:03:45.289Z,73.60
2023-04-02T02:06:16.503Z,73.58
2023-04-02T02:08:48.811Z,73.61
2023-04-02T02:11:23.080Z,73.52
2023-04-02T02:13:56.365Z,73.59
2023-04-02T02:16:41.402Z,73.53
2023-04-02T02:19:38.972Z,73.60
2023-04-02T02:22:11.517Z,73.49
2023-04-02T02:24:43.893Z,73.58
2023-04-02T02:27:22.223Z,73.53
2023-04-02T02:30:23.997Z,73.62
2023-04-02T02:33:07.302Z,73.53
2023-04-02T02:35:50.550Z,73.45
2023-04-02T02:38:33.353Z,73.22
2023-04-02T02:41:34.765Z,73.34
2023-04-02T02:44:18.303Z,73.40
2023-04-02T02:46:58.003Z,73.46
2023-04-02T02:49:41.338Z,73.40
2023-04-02T02:52:09.712Z,73.30
2023-04-02T02:54:53.576Z,73.43
2023-04-02T02:57:28.641Z,73.45
2023-04-02T03:00:01.096Z,73.48
2023-04-02T03:02:36.021Z,73.46
2023-04-02T03:05:09.568Z,73.42
2023-04-02T03:07:40.391Z,73.53
2023-04-02T03:10:37.206Z,73.52
2023-04-02T03:13:22.505Z,73.41
2023-04-02T03:16:19.188Z,73.32
2023-04-02T03:19:25.205Z,73.32
2023-04-02T03:22:10.740Z,73.31
2023-04-02T03:24:55.027Z,73.43
2023-04-02T03:27:33.261Z,73.58
2023-04-02T03:30:27.984Z,73.46
2023-04-02T03:33:23.321Z,73.33
2023-04-02T03:36:12.577Z,73.34
2023-04-02T03:38:52.998Z,73.29
2023-04-02T03:41:40.138Z,73.24
2023-04-02T03:44:21.655Z,73.26
2023-04-02T03:46:57.209Z,73.27
2023-04-02T03:49:31.949Z,73.47
2023-04-02T03:52:16.333Z,73.40
2023-04-02T03:54:53.700Z,73.57
2023-04-02T03:57:32.978Z,73.55
2023-04-02T04:00:25.774Z,73.55
2023-04-02T04:03:03.663Z,73.62
2023-04-02T04:05:37.401Z,73.54
2023-04-02T04:08:18.699Z,73.47
2023-04-02T04:10:51.962Z,73.58
2023-04-02T04:13:29.553Z,73.53
2023-04-02T04:16:15.347Z,73.54
2023-04-02T04:19:03.565Z,73.52
2023-04-02T04:21:40.504Z,73.45
2023-04-02T04:24:21.492Z,73.46
2023-04-02T04:27:09.391Z,73.53
2023-04-02T04:30:07.087Z,73.59
2023-04-02T04:33:01.845Z,73.46
2023-04-02T04:35:50.170Z,73.56
2023-04-02T04:38:38.984Z,73.66
2023-04-02T04:41:14.808Z,73.65
2023-04-02T04:44:11.500Z,73.51
2023-04-02T04:47:07.350Z,73.61
2023-04-02T04:49:56.330Z,73.56
2023-04-02T04:52:28.447Z,73.46
2023-04-02T04:55:00.811Z,73.44
2023-04-02T04:57:38.608Z,73.59
2023-04-02T05:00:20.416Z,73.57
2023-04-02T05:02:58.236Z,73.50
2023-04-02T05:05:33.107Z,73.65
2023-04-02T05:08:17.775Z,73.76
2023-04-02T05:11:04.966Z,73.63
2023-04-02T05:13:43.688Z,73.51
2023-04-02T05:16:53.532Z,73.49
2023-04-02T05:19:41.280Z,73.43
2023-04-02T05:22:43.106Z,73.57
2023-04-02T05:25:20.447Z,73.56
2023-04-02T05:28:10.491Z,73.63
2023-04-02T05:30:49.017Z,73.64
2023-04-02T05:33:29.082Z,73.50
2023-04-02T05:36:11.987Z,73.48
2023-04-02T05:38:49.453Z,73.45
2023-04-02T05:41:28.107Z,73.40
2023-04-02T05:44:25.338Z,73.30
2023-04-02T05:47:05.110Z,73.48
2023-04-02T05:49:37.605Z,73.50
2023-04-02T05:52:15.961Z,73.61
2023-04-02T05:54:58.790Z,73.40
2023-04-02T05:57:44.542Z,73.39
2023-04-02T06:00:32.006Z,73.44
2023-04-02T06:03:14.583Z,73.34
2023-04-02T06:05:46.598Z,73.25
2023-04-02T06:08:25.401Z,73.25
2023-04-02T06:11:18.877Z,73.28
2023-04-02T06:13:47.533Z,73.42
2023-04-02T06:16:25.945Z,73.49
2023-04-02T06:18:55.504Z,73.62
2023-04-02T06:21:25.407Z,73.52
2023-04-02T06:23:59.477Z,73.40
2023-04-02T06:26:35.931Z,73.48
2023-04-02T06:29:39.659Z,73.39
2023-04-02T06:32:13.013Z,73.30
2023-04-02T06:34:46.372Z,73.28
2023-04-02T06:37:27.417Z,73.46
2023-04-02T06:40:39.125Z,73.52
2023-04-02T06:43:35.702Z,73.63
2023-04-02T06:46:54.710Z,73.56
2023-04-02T06:49:28.111Z,73.43
2023-04-02T06:52:09.498Z,73.41
2023-04-02T06:54:38.125Z,73.48
2023-04-02T06:57:13.109Z,73.36
2023-04-02T06:59:48.078Z,73.30
2023-04-02T07:02:34.543Z,73.42
2023-04-02T07:05:09.484Z,73.55
2023-04-02T07:07:43.911Z,73.46
2023-04-02T07:10:13.622Z,73.59
2023-04-02T07:12:44.962Z,73.33
2023-04-02T07:15:19.013Z,73.52
2023-04-02T07:17:47.951Z,73.74
2023-04-02T07:20:28.702Z,73.67
2023-04-02T07:23:04.498Z,73.33
2023-04-02T07:25:33.083Z,73.36
2023-04-02T07:28:06.932Z,73.51
2023-04-02T07:30:35.222Z,73.53
2023-04-02T07:33:10.145Z,73.66
2023-04-02T07:35:40.143Z,73.61
2023-04-02T07:38:09.348Z,73.72
2023-04-02T07:40:38.217Z,73.85
2023-04-02T07:43:07.007Z,73.61
2023-04-02T07:45:35.560Z,73.54
2023-04-02T07:48:09.170Z,73.42
2023-04-02T07:50:47.557Z,73.43
2023-04-02T07:53:34.683Z,73.53
2023-04-02T07:56:06.983Z,73.61
2023-04-02T07:58:38.018Z,73.49
2023-04-02T08:01:19.251Z,73.59
2023-04-02T08:03:48.317Z,73.50
2023-04-02T08:06:16.797Z,73.43
2023-04-02T08:08:45.359Z,73.58
2023-04-02T08:11:13.931Z,73.47
2023-04-02T08:13:42.216Z,73.51
2023-04-02T08:16:13.594Z,73.64
2023-04-02T08:18:43.994Z,73.73
2023-04-02T08:21:16.371Z,73.86
2023-04-02T08:23:45.641Z,73.96
2023-04-02T08:26:18.765Z,73.78
2023-04-02T08:28:47.050Z,73.76
2023-04-02T08:31:17.073Z,73.72
2023-04-02T08:33:45.465Z,73.72
2023-04-02T08:36:20.782Z,73.86
2023-04-02T08:38:49.285Z,73.98
2023-04-02T08:41:27.554Z,74.10
2023-04-02T08:44:27.973Z,74.05
2023-04-02T08:47:08.945Z,74.04
2023-04-02T08:49:57.398Z,73.95
2023-04-02T08:52:33.986Z,73.97
2023-04-02T08:55:03.635Z,73.90
2023-04-02T08:57:46.523Z,73.81
2023-04-02T09:00:35.603Z,73.90
2023-04-02T09:03:16.367Z,73.97
2023-04-02T09:05:51.171Z,74.07
2023-04-02T09:08:25.684Z,73.98
2023-04-02T09:11:26.439Z,73.83
2023-04-02T09:13:58.790Z,73.98
2023-04-02T09:16:55.858Z,73.91
2023-04-02T09:19:32.064Z,73.94
2023-04-02T09:22:20.286Z,73.89
2023-04-02T09:25:15.702Z,73.93
2023-04-02T09:27:51.440Z,73.96
2023-04-02T09:30:32.399Z,73.95
2023-04-02T09:33:06.921Z,74.03
2023-04-02T09:35:56.667Z,74.03
2023-04-02T09:38:30.412Z,74.04
2023-04-02T09:41:07.383Z,73.83
2023-04-02T09:43:39.928Z,73.84
2023-04-02T09:46:23.326Z,73.80
2023-04-02T09:49:03.059Z,73.85
2023-04-02T09:51:36.278Z,73.74
2023-04-02T09:54:14.107Z,73.82
2023-04-02T09:57:01.274Z,73.86
2023-04-02T09:59:40.870Z,73.86
2023-04-02T10:02:29.262Z,74.01
2023-04-02T10:05:07.677Z,73.93
2023-04-02T10:07:44.362Z,73.95
2023-04-02T10:10:33.573Z,73.96
2023-04-02T10:13:20.705Z,73.79
2023-04-02T10:16:07.226Z,73.75
2023-04-02T10:18:45.251Z,73.85
2023-04-02T10:21:18.951Z,73.72
2023-04-02T10:24:16.682Z,73.84
2023-04-02T10:27:18.399Z,73.88
2023-04-02T10:29:55.912Z,73.78
2023-04-02T10:32:40.439Z,73.69
2023-04-02T10:35:11.849Z,73.69
2023-04-02T10:37:48.494Z,73.83
2023-04-02T10:40:30.223Z,73.63
2023-04-02T10:43:38.361Z,73.55
2023-04-02T10:46:16.571Z,73.63
2023-04-02T10:49:11.575Z,73.73
2023-04-02T10:51:55.080Z,73.68
2023-04-02T10:54:48.573Z,73.88
2023-04-02T10:57:31.087Z,73.86
2023-04-02T11:00:04.651Z,73.97
2023-04-02T11:03:08.431Z,73.84
2023-04-02T11:05:49.731Z,73.56
2023-04-02T11:08:26.188Z,73.54
2023-04-02T11:11:24.369Z,73.65
2023-04-02T11:14:05.838Z,73.72
2023-04-02T11:16:41.698Z,73.62
2023-04-02T11:19:20.324Z,73.59
2023-04-02T11:22:18.261Z,73.66
2023-04-02T11:24:52.815Z,73.66
2023-04-02T11:27:35.120Z,73.63
2023-04-02T11:30:28.054Z,73.56
2023-04-02T11:33:44.101Z,73.45
2023-04-02T11:36:59.131Z,73.36
2023-04-02T11:39:55.601Z,73.31
2023-04-02T11:42:42.157Z,73.61
2023-04-02T11:45:23.868Z,73.60
2023-04-02T11:48:06.105Z,73.56
2023-04-02T11:50:48.306Z,73.57
2023-04-02T11:53:23.121Z,73.51
2023-04-02T11:56:02.797Z,73.61
2023-04-02T11:59:24.002Z,73.39
2023-04-02T12:02:42.674Z,73.56
2023-04-02T12:05:40.602Z,73.53
2023-04-02T12:08:44.281Z,73.19
2023-04-02T12:11:40.763Z,73.28
2023-04-02T12:14:30.608Z,73.32
2023-04-02T12:17:02.118Z,73.54
2023-04-02T12:19:33.729Z,73.62
2023-04-02T12:22:05.348Z,73.52
2023-04-02T12:24:36.679Z,73.44
2023-04-02T12:27:24.640Z,73.32
2023-04-02T12:30:24.085Z,73.28
2023-04-02T12:32:58.859Z,73.16
2023-04-02T12:35:38.117Z,73.12
2023-04-02T12:38:32.940Z,73.21
2023-04-02T12:41:08.435Z,72.98
2023-04-02T12:43:42.071Z,72.92
2023-04-02T12:46:17.242Z,72.91
2023-04-02T12:48:54.824Z,72.90
2023-04-02T12:51:28.875Z,73.13
2023-04-02T12:54:03.268Z,72.93
2023-04-02T12:56:36.220Z,72.82
2023-04-02T12:59:07.620Z,73.42
2023-04-02T13:01:59.406Z,72.93
2023-04-02T13:04:31.364Z,72.72
2023-04-02T13:07:07.432Z,72.64
2023-04-02T13:10:02.466Z,72.67
2023-04-02T13:12:39.059Z,72.69
2023-04-02T13:15:22.653Z,72.47
2023-04-02T13:18:08.645Z,72.50
2023-04-02T13:20:47.245Z,72.28
2023-04-02T13:23:29.393Z,72.35
2023-04-02T13:26:12.625Z,72.31
2023-04-02T13:28:43.499Z,72.14
2023-04-02T13:31:18.396Z,72.06
2023-04-02T13:33:48.877Z,71.87
2023-04-02T13:36:21.316Z,71.75
2023-04-02T13:38:52.674Z,71.78
2023-04-02T13:41:35.734Z,71.77
2023-04-02T13:44:06.827Z,71.83
2023-04-02T13:46:40.705Z,71.78
2023-04-02T13:49:23.093Z,71.87
2023-04-02T13:52:00.899Z,71.70
2023-04-02T13:55:02.085Z,71.63
2023-04-02T13:57:36.149Z,71.49
2023-04-02T14:00:08.903Z,71.65
2023-04-02T14:02:47.157Z,71.64
2023-04-02T14:05:24.390Z,71.70
2023-04-02T14:08:09.830Z,71.64
2023-04-02T14:11:11.134Z,71.67
2023-04-02T14:14:00.192Z,71.52
2023-04-02T14:17:03.532Z,71.52
2023-04-02T14:20:06.594Z,71.50
2023-04-02T14:23:06.594Z,71.36
2023-04-02T14:26:03.702Z,71.28
2023-04-02T14:28:50.870Z,71.13
2023-04-02T14:31:26.029Z,71.06
2023-04-02T14:34:29.598Z,70.98
2023-04-02T14:37:27.557Z,70.75
2023-04-02T14:40:21.917Z,70.65
2023-04-02T14:43:26.553Z,70.52
2023-04-02T14:46:08.997Z,70.44
2023-04-02T14:48:52.806Z,70.57
2023-04-02T14:51:53.337Z,70.60
2023-04-02T14:54:39.271Z,70.46
2023-04-02T14:57:25.315Z,70.35
2023-04-02T15:00:23.512Z,70.26
2023-04-02T15:03:12.323Z,70.10
2023-04-02T15:05:59.237Z,70.13
2023-04-02T15:08:58.638Z,70.22
2023-04-02T15:11:48.236Z,70.14
2023-04-02T15:14:36.149Z,70.09
2023-04-02T15:17:14.319Z,70.22
2023-04-02T15:19:46.107Z,70.03
2023-04-02T15:22:47.255Z,70.03
2023-04-02T15:26:04.013Z,69.90
2023-04-02T15:28:51.188Z,69.83
2023-04-02T15:31:31.170Z,69.89
2023-04-02T15:34:09.673Z,69.71
2023-04-02T15:37:22.922Z,69.69
2023-04-02T15:40:12.692Z,69.45
2023-04-02T15:43:09.358Z,69.53
2023-04-02T15:45:56.634Z,69.33
2023-04-02T15:48:34.550Z,69.34
2023-04-02T15:51:36.386Z,69.34
2023-04-02T15:54:31.173Z,69.33
2023-04-02T15:57:23.108Z,69.33
2023-04-02T16:00:31.299Z,69.09
2023-04-02T16:03:19.038Z,69.08
2023-04-02T16:06:04.952Z,69.01
2023-04-02T16:09:11.440Z,68.94
2023-04-02T16:11:48.036Z,68.84
2023-04-02T16:14:34.869Z,68.95
2023-04-02T16:17:25.070Z,68.86
2023-04-02T16:20:08.630Z,68.83
2023-04-02T16:22:53.357Z,68.83
2023-04-02T16:25:58.271Z,68.94
2023-04-02T16:28:50.453Z,68.78
2023-04-02T16:31:41.354Z,68.79
2023-04-02T16:34:43.854Z,68.75
2023-04-02T16:37:38.907Z,68.85
2023-04-02T16:40:30.755Z,68.87
2023-04-02T16:43:31.203Z,68.80
2023-04-02T16:46:38.847Z,68.63
2023-04-02T16:49:26.383Z,68.54
2023-04-02T16:52:34.343Z,68.46
2023-04-02T16:55:34.652Z,68.49
2023-04-02T16:58:44.696Z,68.23
2023-04-02T17:01:49.667Z,68.16
2023-04-02T17:04:55.873Z,67.95
2023-04-02T17:07:52.916Z,67.95
2023-04-02T17:10:36.710Z,67.91
2023-04-02T17:13:34.577Z,67.82
2023-04-02T17:16:15.204Z,67.78
2023-04-02T17:18:59.724Z,67.66
2023-04-02T17:21:34.174Z,67.54
2023-04-02T17:24:33.941Z,67.40
2023-04-02T17:27:15.777Z,67.33
2023-04-02T17:29:53.511Z,67.26
2023-04-02T17:32:33.671Z,67.31
2023-04-02T17:35:39.787Z,67.29
2023-04-02T17:38:20.764Z,67.23
2023-04-02T17:41:32.145Z,67.12
2023-04-02T17:44:49.239Z,66.87
2023-04-02T17:48:01.894Z,67.06
2023-04-02T17:50:38.130Z,66.63
2023-04-02T17:53:35.788Z,66.86
2023-04-02T17:56:24.509Z,66.70
2023-04-02T17:59:08.574Z,66.61
2023-04-02T18:01:53.853Z,66.60
2023-04-02T18:04:52.422Z,66.38
2023-04-02T18:07:36.103Z,66.22
2023-04-02T18:10:12.090Z,66.13
2023-04-02T18:13:09.695Z,66.08
2023-04-02T18:15:58.545Z,65.96
2023-04-02T18:18:52.475Z,65.82
2023-04-02T18:21:35.704Z,65.67
2023-04-02T18:25:06.862Z,65.69
2023-04-02T18:27:51.876Z,65.63
2023-04-02T18:30:38.158Z,65.69
2023-04-02T18:33:37.615Z,65.64
2023-04-02T18:36:17.167Z,65.62
2023-04-02T18:39:06.349Z,65.51
2023-04-02T18:41:52.044Z,65.47
2023-04-02T18:44:53.994Z,65.60
2023-04-02T18:47:46.669Z,65.56
2023-04-02T18:50:29.423Z,65.46
2023-04-02T18:53:27.946Z,65.46
2023-04-02T18:56:12.190Z,65.44
2023-04-02T18:59:06.780Z,65.43
2023-04-02T19:02:04.530Z,65.37
2023-04-02T19:04:46.538Z,65.35
2023-04-02T19:07:31.700Z,65.35
2023-04-02T19:10:26.007Z,65.23
2023-04-02T19:13:00.723Z,65.22
2023-04-02T19:15:56.699Z,65.20
2023-04-02T19:19:06.883Z,65.14
2023-04-02T19:22:13.044Z,65.19
2023-04-02T19:25:21.679Z,65.07
2023-04-02T19:28:40.284Z,65.00
2023-04-02T19:31:38.533Z,64.91
2023-04-02T19:34:20.782Z,64.91
2023-04-02T19:37:03.398Z,64.98
2023-04-02T19:40:15.213Z,64.93
2023-04-02T19:43:01.121Z,64.96
2023-04-02T19:45:50.610Z,64.89
2023-04-02T19:48:50.384Z,64.86
2023-04-02T19:51:27.411Z,64.82
2023-04-02T19:54:06.926Z,64.79
2023-04-02T19:56:44.468Z,64.86
2023-04-02T19:59:24.474Z,64.88
2023-04-02T20:02:00.008Z,64.80
2023-04-02T20:04:34.830Z,64.75
2023-04-02T20:07:09.064Z,64.78
2023-04-02T20:09:45.290Z,64.80
2023-04-02T20:12:26.246Z,64.71
2023-04-02T20:14:58.679Z,64.64
2023-04-02T20:17:33.326Z,64.70
2023-04-02T20:20:11.744Z,64.61
2023-04-02T20:22:49.199Z,64.67
2023-04-02T20:25:24.376Z,64.66
2023-04-02T20:27:56.624Z,64.64
2023-04-02T20:30:36.601Z,64.68
2023-04-02T20:33:08.501Z,64.65
2023-04-02T20:35:42.878Z,64.68
2023-04-02T20:38:19.969Z,64.59
2023-04-02T20:40:58.526Z,64.62
2023-04-02T20:43:32.957Z,64.67
2023-04-02T20:46:10.843Z,64.65
2023-04-02T20:48:46.312Z,64.65
2023-04-02T20:51:47.925Z,64.61
2023-04-02T20:54:24.909Z,64.62
2023-04-02T20:56:55.817Z,64.55
2023-04-02T20:59:26.237Z,64.66
2023-04-02T21:01:56.530Z,64.59
2023-04-02T21:04:27.279Z,64.87
2023-04-02T21:06:57.962Z,64.99
2023-04-02T21:09:28.727Z,64.76
2023-04-02T21:11:59.560Z,64.65
2023-04-02T21:14:31.746Z,64.54
2023-04-02T21:17:02.122Z,64.64
2023-04-02T21:19:33.318Z,64.55
2023-04-02T21:22:05.734Z,64.59
2023-04-02T21:24:43.380Z,64.63
2023-04-02T21:27:16.635Z,64.59
2023-04-02T21:29:47.090Z,64.56
2023-04-02T21:32:21.660Z,64.61
2023-04-02T21:34:52.921Z,64.58
2023-04-02T21:37:26.042Z,64.61
2023-04-02T21:39:56.617Z,64.52
2023-04-02T21:42:29.423Z,64.55
2023-04-02T21:45:05.823Z,64.61
2023-04-02T21:47:36.845Z,64.56
2023-04-02T21:50:09.499Z,64.60
2023-04-02T21:52:40.092Z,64.56
2023-04-02T21:55:10.870Z,64.53
2023-04-02T21:57:45.051Z,64.56
2023-04-02T22:00:21.829Z,64.52
2023-04-02T22:02:52.272Z,64.61
2023-04-02T22:05:23.009Z,64.52
2023-04-02T22:07:53.712Z,64.44
2023-04-02T22:10:24.102Z,64.53
2023-04-02T22:12:54.854Z,64.61
2023-04-02T22:15:26.063Z,64.59
2023-04-02T22:17:56.755Z,64.68
2023-04-02T22:20:29.580Z,64.62
2023-04-02T22:23:01.685Z,64.59
2023-04-02T22:25:35.553Z,64.48
2023-04-02T22:28:08.312Z,64.45
2023-04-02T22:30:39.243Z,64.42
2023-04-02T22:33:11.961Z,64.65
2023-04-02T22:35:42.588Z,64.64
2023-04-02T22:38:13.223Z,64.67
2023-04-02T22:40:43.845Z,64.62
2023-04-02T22:43:14.304Z,64.64
2023-04-02T22:45:52.580Z,64.57
2023-04-02T22:48:23.194Z,64.50
2023-04-02T22:50:56.010Z,64.49
2023-04-02T22:53:29.340Z,64.52
2023-04-02T22:56:14.818Z,64.50
2023-04-02T22:58:49.070Z,64.49
2023-04-02T23:01:29.023Z,64.57
2023-04-02T23:04:01.856Z,64.48
2023-04-02T23:06:35.971Z,64.55
2023-04-02T23:09:08.850Z,64.53
2023-04-02T23:11:44.345Z,64.47
2023-04-02T23:14:16.294Z,64.48
2023-04-02T23:16:50.474Z,64.48
2023-04-02T23:19:27.129Z,64.46
2023-04-02T23:21:58.149Z,64.39
2023-04-02T23:24:38.180Z,64.40
2023-04-02T23:27:10.357Z,64.34
2023-04-02T23:29:44.570Z,64.49
2023-04-02T23:32:15.140Z,64.33
2023-04-02T23:34:45.718Z,64.35
2023-04-02T23:37:16.665Z,64.39
2023-04-02T23:39:49.817Z,64.24
2023-04-02T23:42:20.349Z,64.32
2023-04-02T23:44:50.896Z,64.33
2023-04-02T23:47:23.360Z,64.27
2023-04-02T23:49:56.577Z,64.33
2023-04-02T23:52:27.117Z,64.38
2023-04-02T23:54:57.435Z,64.33
2023-04-02T23:57:27.720Z,64.31
